createdAt,value
2023-03-18T00:02:19.016Z,6.93
2023-03-18T00:04:45.609Z,7.90
2023-03-18T00:07:12.222Z,7.53
2023-03-18T00:09:41.037Z,5.73
2023-03-18T00:12:08.389Z,7.17
2023-03-18T00:14:36.249Z,5.97
2023-03-18T00:17:02.941Z,6.97
2023-03-18T00:19:29.514Z,7.03
2023-03-18T00:21:56.010Z,7.17
2023-03-18T00:24:22.567Z,6.47
2023-03-18T00:26:49.065Z,7.03
2023-03-18T00:29:15.544Z,6.80
2023-03-18T00:31:41.958Z,7.33
2023-03-18T00:34:08.318Z,6.20
2023-03-18T00:36:34.737Z,7.43
2023-03-18T00:39:03.562Z,11.13
2023-03-18T00:41:33.129Z,7.97
2023-03-18T00:43:59.741Z,7.70
2023-03-18T00:46:31.676Z,4.87
2023-03-18T00:49:00.418Z,7.93
2023-03-18T00:51:28.729Z,9.60
2023-03-18T00:53:57.330Z,6.10
2023-03-18T00:56:26.363Z,11.13
2023-03-18T00:58:54.096Z,6.37
2023-03-18T01:01:21.387Z,9.63
2023-03-18T01:03:49.509Z,9.67
2023-03-18T01:06:22.575Z,8.03
2023-03-18T01:08:50.039Z,8.50
2023-03-18T01:11:16.917Z,9.50
2023-03-18T01:13:44.002Z,8.10
2023-03-18T01:16:10.772Z,7.80
2023-03-18T01:18:38.161Z,10.60
2023-03-18T01:21:04.923Z,8.63
2023-03-18T01:23:31.522Z,9.23
2023-03-18T01:25:58.934Z,12.37
2023-03-18T01:28:27.384Z,6.20
2023-03-18T01:30:54.094Z,5.70
2023-03-18T01:33:20.494Z,5.33
2023-03-18T01:35:49.582Z,7.27
2023-03-18T01:38:16.303Z,10.80
2023-03-18T01:40:43.983Z,8.90
2023-03-18T01:43:10.400Z,9.60
2023-03-18T01:45:36.909Z,6.43
2023-03-18T01:48:03.484Z,8.63
2023-03-18T01:50:34.996Z,6.73
2023-03-18T01:53:08.647Z,7.97
2023-03-18T01:55:36.505Z,6.07
2023-03-18T01:58:05.149Z,7.33
2023-03-18T02:00:32.420Z,7.43
2023-03-18T02:02:59.036Z,11.77
2023-03-18T02:05:27.088Z,6.90
2023-03-18T02:07:53.919Z,6.53
2023-03-18T02:10:24.786Z,6.30
2023-03-18T02:12:54.751Z,7.77
2023-03-18T02:15:23.237Z,10.13
2023-03-18T02:17:55.479Z,10.03
2023-03-18T02:20:35.662Z,8.10
2023-03-18T02:23:14.555Z,5.60
2023-03-18T02:25:52.620Z,5.47
2023-03-18T02:28:23.398Z,9.37
2023-03-18T02:30:53.467Z,9.50
2023-03-18T02:33:21.619Z,5.33
2023-03-18T02:35:57.138Z,10.50
2023-03-18T02:38:23.568Z,7.67
2023-03-18T02:40:50.010Z,9.93
2023-03-18T02:43:21.049Z,8.10
2023-03-18T02:45:55.767Z,7.50
2023-03-18T02:48:24.469Z,6.80
2023-03-18T02:50:50.946Z,10.53
2023-03-18T02:53:17.494Z,7.90
2023-03-18T02:55:43.921Z,9.00
2023-03-18T02:58:10.285Z,10.33
2023-03-18T03:00:37.233Z,6.30
2023-03-18T03:03:04.147Z,9.13
2023-03-18T03:05:31.254Z,12.17
2023-03-18T03:07:57.668Z,10.40
2023-03-18T03:10:24.182Z,8.60
2023-03-18T03:12:51.448Z,11.27
2023-03-18T03:15:17.913Z,8.43
2023-03-18T03:17:44.357Z,6.83
2023-03-18T03:20:11.429Z,12.17
2023-03-18T03:22:37.878Z,12.20
2023-03-18T03:25:05.725Z,7.20
2023-03-18T03:27:33.125Z,9.13
2023-03-18T03:29:59.666Z,10.10
2023-03-18T03:32:26.084Z,10.50
2023-03-18T03:34:52.501Z,13.93
2023-03-18T03:37:18.927Z,21.13
2023-03-18T03:39:47.694Z,8.90
2023-03-18T03:42:14.198Z,11.30
2023-03-18T03:44:40.894Z,10.50
2023-03-18T03:47:07.414Z,9.53
2023-03-18T03:49:33.869Z,9.33
2023-03-18T03:52:00.359Z,12.53
2023-03-18T03:54:27.098Z,15.67
2023-03-18T03:56:54.190Z,12.27
2023-03-18T03:59:20.576Z,11.47
2023-03-18T04:01:47.299Z,11.07
2023-03-18T04:04:13.711Z,12.70
2023-03-18T04:06:40.278Z,10.67
2023-03-18T04:09:06.775Z,12.93
2023-03-18T04:11:33.320Z,12.03
2023-03-18T04:13:59.870Z,13.37
2023-03-18T04:16:26.680Z,11.00
2023-03-18T04:18:53.136Z,13.13
2023-03-18T04:21:19.524Z,13.23
2023-03-18T04:23:46.449Z,9.57
2023-03-18T04:26:13.106Z,13.57
2023-03-18T04:28:40.385Z,13.00
2023-03-18T04:31:07.077Z,11.60
2023-03-18T04:33:34.207Z,12.50
2023-03-18T04:36:00.819Z,10.23
2023-03-18T04:38:28.488Z,12.67
2023-03-18T04:40:54.942Z,13.40
2023-03-18T04:43:21.389Z,13.03
2023-03-18T04:45:47.810Z,12.03
2023-03-18T04:48:14.488Z,10.60
2023-03-18T04:50:41.035Z,17.73
2023-03-18T04:53:07.471Z,10.37
2023-03-18T04:55:34.112Z,12.50
2023-03-18T04:58:00.790Z,16.10
2023-03-18T05:00:27.669Z,11.17
2023-03-18T05:02:54.070Z,9.97
2023-03-18T05:05:21.131Z,12.73
2023-03-18T05:07:47.738Z,10.53
2023-03-18T05:10:14.418Z,9.40
2023-03-18T05:12:42.043Z,13.50
2023-03-18T05:15:10.884Z,12.97
2023-03-18T05:17:40.007Z,15.20
2023-03-18T05:20:07.107Z,13.73
2023-03-18T05:22:34.053Z,13.90
2023-03-18T05:25:00.569Z,12.30
2023-03-18T05:27:28.297Z,15.37
2023-03-18T05:29:54.854Z,13.40
2023-03-18T05:32:21.294Z,13.87
2023-03-18T05:34:47.671Z,13.93
2023-03-18T05:37:15.516Z,12.80
2023-03-18T05:39:44.824Z,13.73
2023-03-18T05:42:11.829Z,14.23
2023-03-18T05:44:40.201Z,15.60
2023-03-18T05:47:06.664Z,12.77
2023-03-18T05:49:33.034Z,17.80
2023-03-18T05:51:59.481Z,17.23
2023-03-18T05:54:25.846Z,15.07
2023-03-18T05:56:52.744Z,13.83
2023-03-18T05:59:19.670Z,15.37
2023-03-18T06:01:46.689Z,12.97
2023-03-18T06:04:13.082Z,13.10
2023-03-18T06:06:40.697Z,15.23
2023-03-18T06:09:08.647Z,12.60
2023-03-18T06:11:35.571Z,20.73
2023-03-18T06:14:01.958Z,15.10
2023-03-18T06:16:31.122Z,12.27
2023-03-18T06:18:58.263Z,17.47
2023-03-18T06:21:24.698Z,13.17
2023-03-18T06:23:51.379Z,16.60
2023-03-18T06:26:18.189Z,15.43
2023-03-18T06:28:46.020Z,18.07
2023-03-18T06:31:13.129Z,14.77
2023-03-18T06:33:39.639Z,15.53
2023-03-18T06:36:06.811Z,15.87
2023-03-18T06:38:33.262Z,16.50
2023-03-18T06:40:59.856Z,17.93
2023-03-18T06:43:29.670Z,15.53
2023-03-18T06:45:56.088Z,15.73
2023-03-18T06:48:22.540Z,14.70
2023-03-18T06:50:49.784Z,16.03
2023-03-18T06:53:16.290Z,12.07
2023-03-18T06:55:43.090Z,13.43
2023-03-18T06:58:10.572Z,20.10
2023-03-18T07:00:37.130Z,15.53
2023-03-18T07:03:05.016Z,17.10
2023-03-18T07:05:33.417Z,15.37
2023-03-18T07:07:59.953Z,14.93
2023-03-18T07:10:29.120Z,17.13
2023-03-18T07:12:55.740Z,16.20
2023-03-18T07:15:23.307Z,23.83
2023-03-18T07:17:52.229Z,22.77
2023-03-18T07:20:18.755Z,14.30
2023-03-18T07:22:46.787Z,16.87
2023-03-18T07:25:13.359Z,17.80
2023-03-18T07:27:40.408Z,20.07
2023-03-18T07:30:09.501Z,19.40
2023-03-18T07:32:37.404Z,19.67
2023-03-18T07:35:05.583Z,17.80
2023-03-18T07:37:33.346Z,15.27
2023-03-18T07:39:59.760Z,17.30
2023-03-18T07:42:26.440Z,18.97
2023-03-18T07:44:52.872Z,17.10
2023-03-18T07:47:20.754Z,21.47
2023-03-18T07:49:47.184Z,15.37
2023-03-18T07:52:13.671Z,19.00
2023-03-18T07:54:40.372Z,16.00
2023-03-18T07:57:06.970Z,16.03
2023-03-18T07:59:33.485Z,17.23
2023-03-18T08:01:59.965Z,18.30
2023-03-18T08:04:26.554Z,13.17
2023-03-18T08:06:53.357Z,20.97
2023-03-18T08:09:19.841Z,19.93
2023-03-18T08:11:46.794Z,14.70
2023-03-18T08:14:13.931Z,17.20
2023-03-18T08:16:40.420Z,18.17
2023-03-18T08:19:07.113Z,17.97
2023-03-18T08:21:33.586Z,16.30
2023-03-18T08:24:00.052Z,18.20
2023-03-18T08:26:26.515Z,17.33
2023-03-18T08:28:53.143Z,20.00
2023-03-18T08:31:19.820Z,15.30
2023-03-18T08:33:46.316Z,15.20
2023-03-18T08:36:12.940Z,15.27
2023-03-18T08:38:39.996Z,17.47
2023-03-18T08:41:06.589Z,16.00
2023-03-18T08:43:33.412Z,14.43
2023-03-18T08:45:59.834Z,18.87
2023-03-18T08:48:26.354Z,18.77
2023-03-18T08:50:53.597Z,16.80
2023-03-18T08:53:20.248Z,17.07
2023-03-18T08:55:47.657Z,19.20
2023-03-18T08:58:14.215Z,18.43
2023-03-18T09:00:41.762Z,16.13
2023-03-18T09:03:09.080Z,15.50
2023-03-18T09:05:36.242Z,13.47
2023-03-18T09:08:03.709Z,15.97
2023-03-18T09:10:30.299Z,15.37
2023-03-18T09:12:56.827Z,20.13
2023-03-18T09:15:23.495Z,23.87
2023-03-18T09:18:07.865Z,21.57
2023-03-18T09:20:37.624Z,16.23
2023-03-18T09:23:04.017Z,18.40
2023-03-18T09:25:30.858Z,21.67
2023-03-18T09:27:57.512Z,17.27
2023-03-18T09:30:25.794Z,15.93
2023-03-18T09:32:52.346Z,17.23
2023-03-18T09:35:18.770Z,20.07
2023-03-18T09:37:45.472Z,21.67
2023-03-18T09:40:19.236Z,22.60
2023-03-18T09:43:13.419Z,17.10
2023-03-18T09:46:04.987Z,18.37
2023-03-18T09:48:57.012Z,16.67
2023-03-18T09:51:41.922Z,22.30
2023-03-18T09:54:12.892Z,20.50
2023-03-18T09:56:40.084Z,19.70
2023-03-18T09:59:10.641Z,20.37
2023-03-18T10:01:38.129Z,21.13
2023-03-18T10:04:11.578Z,22.60
2023-03-18T10:06:38.469Z,18.83
2023-03-18T10:09:10.036Z,16.97
2023-03-18T10:11:42.799Z,21.17
2023-03-18T10:14:36.187Z,25.70
2023-03-18T10:17:12.224Z,19.03
2023-03-18T10:19:42.526Z,22.83
2023-03-18T10:22:35.673Z,19.23
2023-03-18T10:25:12.185Z,19.63
2023-03-18T10:28:03.352Z,22.40
2023-03-18T10:30:59.855Z,19.70
2023-03-18T10:33:37.195Z,19.83
2023-03-18T10:36:17.389Z,23.00
2023-03-18T10:38:47.406Z,21.50
2023-03-18T10:41:24.919Z,22.40
2023-03-18T10:43:53.592Z,19.67
2023-03-18T10:46:22.008Z,21.37
2023-03-18T10:48:57.243Z,22.90
2023-03-18T10:51:32.767Z,23.87
2023-03-18T10:54:05.743Z,25.53
2023-03-18T10:56:32.366Z,25.10
2023-03-18T10:58:58.973Z,21.43
2023-03-18T11:01:28.830Z,25.53
2023-03-18T11:04:06.111Z,26.57
2023-03-18T11:06:48.518Z,22.50
2023-03-18T11:09:20.919Z,22.30
2023-03-18T11:11:49.194Z,22.77
2023-03-18T11:14:20.945Z,21.90
2023-03-18T11:16:57.509Z,26.23
2023-03-18T11:19:32.625Z,23.43
2023-03-18T11:22:25.670Z,21.57
2023-03-18T11:25:02.275Z,25.13
2023-03-18T11:27:34.435Z,29.57
2023-03-18T11:30:05.859Z,27.63
2023-03-18T11:32:34.257Z,23.00
2023-03-18T11:35:02.321Z,31.87
2023-03-18T11:37:46.476Z,25.10
2023-03-18T11:40:18.523Z,27.03
2023-03-18T11:42:47.582Z,27.43
2023-03-18T11:45:35.182Z,24.23
2023-03-18T11:48:02.807Z,24.50
2023-03-18T11:50:53.471Z,26.13
2023-03-18T11:53:44.750Z,23.80
2023-03-18T11:56:25.677Z,27.23
2023-03-18T11:59:07.249Z,23.07
2023-03-18T12:02:04.960Z,22.80
2023-03-18T12:05:05.948Z,22.20
2023-03-18T12:07:38.048Z,22.00
2023-03-18T12:10:18.115Z,21.60
2023-03-18T12:13:36.334Z,20.77
2023-03-18T12:16:40.030Z,18.47
2023-03-18T12:19:26.960Z,24.30
2023-03-18T12:22:05.428Z,19.23
2023-03-18T12:24:46.161Z,22.37
2023-03-18T12:27:18.475Z,17.03
2023-03-18T12:30:06.599Z,16.60
2023-03-18T12:32:42.707Z,16.93
2023-03-18T12:35:20.620Z,19.57
2023-03-18T12:38:17.116Z,19.77
2023-03-18T12:40:56.704Z,17.43
2023-03-18T12:43:44.587Z,16.00
2023-03-18T12:46:24.165Z,13.97
2023-03-18T12:49:27.710Z,17.23
2023-03-18T12:52:12.722Z,15.20
2023-03-18T12:54:50.759Z,11.33
2023-03-18T12:57:47.702Z,14.60
2023-03-18T13:00:18.673Z,13.47
2023-03-18T13:02:59.861Z,9.83
2023-03-18T13:05:54.857Z,10.90
2023-03-18T13:08:27.422Z,9.80
2023-03-18T13:11:29.392Z,11.53
2023-03-18T13:14:00.905Z,13.30
2023-03-18T13:16:28.692Z,9.87
2023-03-18T13:18:56.753Z,9.43
2023-03-18T13:21:29.964Z,12.77
2023-03-18T13:24:22.096Z,12.30
2023-03-18T13:26:55.645Z,11.37
2023-03-18T13:29:25.137Z,11.57
2023-03-18T13:32:12.694Z,9.50
2023-03-18T13:35:14.636Z,10.60
2023-03-18T13:38:06.118Z,10.90
2023-03-18T13:41:07.266Z,13.47
2023-03-18T13:43:34.263Z,7.43
2023-03-18T13:46:01.626Z,10.43
2023-03-18T13:48:33.706Z,8.00
2023-03-18T13:51:15.217Z,9.40
2023-03-18T13:53:43.946Z,8.23
2023-03-18T13:56:34.882Z,9.03
2023-03-18T13:59:06.510Z,11.60
2023-03-18T14:01:35.585Z,9.87
2023-03-18T14:04:31.526Z,8.53
2023-03-18T14:07:12.602Z,9.40
2023-03-18T14:09:52.686Z,11.33
2023-03-18T14:12:20.634Z,12.40
2023-03-18T14:14:58.856Z,10.60
2023-03-18T14:17:37.927Z,10.10
2023-03-18T14:20:12.894Z,9.93
2023-03-18T14:22:40.130Z,9.90
2023-03-18T14:25:11.546Z,9.50
2023-03-18T14:27:48.191Z,9.20
2023-03-18T14:30:41.310Z,8.40
2023-03-18T14:33:20.137Z,10.43
2023-03-18T14:35:53.190Z,10.63
2023-03-18T14:38:30.735Z,7.47
2023-03-18T14:40:58.893Z,8.77
2023-03-18T14:43:28.526Z,9.33
2023-03-18T14:46:00.172Z,8.00
2023-03-18T14:48:29.828Z,10.23
2023-03-18T14:50:58.604Z,11.97
2023-03-18T14:53:29.594Z,9.40
2023-03-18T14:55:57.467Z,13.67
2023-03-18T14:58:24.310Z,9.20
2023-03-18T15:00:54.141Z,9.07
2023-03-18T15:03:29.753Z,10.10
2023-03-18T15:06:02.393Z,8.60
2023-03-18T15:08:46.904Z,10.57
2023-03-18T15:11:16.270Z,9.13
2023-03-18T15:13:42.872Z,10.83
2023-03-18T15:16:12.228Z,10.57
2023-03-18T15:18:39.999Z,10.00
2023-03-18T15:21:13.857Z,11.33
2023-03-18T15:23:42.867Z,14.33
2023-03-18T15:26:39.705Z,9.70
2023-03-18T15:29:24.188Z,11.97
2023-03-18T15:31:51.964Z,9.47
2023-03-18T15:34:30.822Z,11.33
2023-03-18T15:37:00.828Z,9.37
2023-03-18T15:39:27.250Z,9.97
2023-03-18T15:41:54.692Z,8.83
2023-03-18T15:44:32.484Z,13.30
2023-03-18T15:47:13.707Z,11.77
2023-03-18T15:49:55.371Z,10.33
2023-03-18T15:52:33.379Z,9.53
2023-03-18T15:55:01.236Z,12.23
2023-03-18T15:57:38.077Z,12.67
2023-03-18T16:00:12.835Z,16.93
2023-03-18T16:02:39.689Z,11.57
2023-03-18T16:05:07.777Z,13.00
2023-03-18T16:07:34.557Z,13.37
2023-03-18T16:10:01.588Z,11.83
2023-03-18T16:12:29.834Z,13.17
2023-03-18T16:14:56.254Z,13.77
2023-03-18T16:17:22.964Z,12.20
2023-03-18T16:19:54.119Z,14.80
2023-03-18T16:22:20.917Z,16.23
2023-03-18T16:24:47.370Z,14.83
2023-03-18T16:27:28.240Z,14.40
2023-03-18T16:29:55.603Z,15.13
2023-03-18T16:32:22.953Z,13.80
2023-03-18T16:34:49.581Z,13.90
2023-03-18T16:37:26.710Z,13.63
2023-03-18T16:39:57.322Z,16.20
2023-03-18T16:42:24.661Z,16.60
2023-03-18T16:44:51.689Z,14.30
2023-03-18T16:47:22.533Z,16.80
2023-03-18T16:49:49.229Z,15.30
2023-03-18T16:52:15.691Z,15.27
2023-03-18T16:54:42.792Z,13.73
2023-03-18T16:57:16.491Z,16.73
2023-03-18T16:59:46.430Z,19.53
2023-03-18T17:02:34.904Z,58.03
2023-03-18T17:05:01.736Z,25.00
2023-03-18T17:07:29.520Z,18.70
2023-03-18T17:09:56.073Z,16.47
2023-03-18T17:12:22.822Z,33.70
2023-03-18T17:14:54.687Z,26.60
2023-03-18T17:17:30.018Z,40.00
2023-03-18T17:19:57.833Z,47.97
2023-03-18T17:22:32.574Z,46.07
2023-03-18T17:25:02.635Z,34.50
2023-03-18T17:27:43.654Z,34.87
2023-03-18T17:30:21.482Z,25.57
2023-03-18T17:32:49.107Z,18.83
2023-03-18T17:35:18.168Z,18.77
2023-03-18T17:37:45.156Z,18.67
2023-03-18T17:40:13.652Z,20.17
2023-03-18T17:42:40.276Z,20.90
2023-03-18T17:45:27.148Z,23.93
2023-03-18T17:47:54.913Z,18.50
2023-03-18T17:50:21.445Z,25.20
2023-03-18T17:52:52.477Z,23.10
2023-03-18T17:55:23.214Z,19.90
2023-03-18T17:57:50.731Z,25.23
2023-03-18T18:00:24.348Z,23.40
2023-03-18T18:02:52.657Z,22.30
2023-03-18T18:05:21.253Z,21.03
2023-03-18T18:07:48.424Z,20.87
2023-03-18T18:10:16.771Z,25.30
2023-03-18T18:12:44.791Z,25.77
2023-03-18T18:15:26.372Z,23.40
2023-03-18T18:17:53.575Z,26.87
2023-03-18T18:20:21.580Z,27.47
2023-03-18T18:22:52.092Z,26.40
2023-03-18T18:25:21.592Z,25.17
2023-03-18T18:27:49.635Z,29.93
2023-03-18T18:30:18.140Z,27.20
2023-03-18T18:32:45.223Z,25.80
2023-03-18T18:35:22.294Z,30.13
2023-03-18T18:37:49.726Z,32.13
2023-03-18T18:40:18.066Z,26.70
2023-03-18T18:42:44.609Z,31.20
2023-03-18T18:45:18.188Z,25.33
2023-03-18T18:47:44.869Z,29.83
2023-03-18T18:50:29.795Z,25.53
2023-03-18T18:52:57.241Z,26.83
2023-03-18T18:55:23.808Z,22.90
2023-03-18T18:57:50.188Z,25.17
2023-03-18T19:00:18.879Z,22.33
2023-03-18T19:02:46.916Z,22.47
2023-03-18T19:05:14.484Z,48.50
2023-03-18T19:07:41.812Z,25.60
2023-03-18T19:10:13.328Z,21.87
2023-03-18T19:12:40.082Z,24.47
2023-03-18T19:15:07.287Z,24.03
2023-03-18T19:17:34.331Z,23.73
2023-03-18T19:20:00.884Z,23.43
2023-03-18T19:22:28.278Z,24.93
2023-03-18T19:24:54.765Z,26.20
2023-03-18T19:27:31.429Z,33.37
2023-03-18T19:30:00.340Z,23.50
2023-03-18T19:32:27.310Z,21.90
2023-03-18T19:34:54.637Z,20.60
2023-03-18T19:37:29.864Z,21.27
2023-03-18T19:39:56.708Z,21.20
2023-03-18T19:42:23.188Z,20.90
2023-03-18T19:44:49.745Z,18.63
2023-03-18T19:47:23.073Z,24.33
2023-03-18T19:49:49.879Z,20.20
2023-03-18T19:52:25.157Z,17.30
2023-03-18T19:54:52.336Z,17.67
2023-03-18T19:57:28.103Z,15.90
2023-03-18T19:59:56.431Z,22.03
2023-03-18T20:02:30.919Z,14.60
2023-03-18T20:04:59.465Z,15.93
2023-03-18T20:07:27.957Z,15.00
2023-03-18T20:09:54.728Z,13.57
2023-03-18T20:12:22.845Z,13.13
2023-03-18T20:14:49.689Z,13.90
2023-03-18T20:17:31.094Z,13.63
2023-03-18T20:19:57.799Z,22.70
2023-03-18T20:22:28.444Z,39.67
2023-03-18T20:24:55.084Z,20.93
2023-03-18T20:27:22.141Z,13.43
2023-03-18T20:29:48.641Z,11.67
2023-03-18T20:32:15.100Z,12.40
2023-03-18T20:34:42.906Z,9.87
2023-03-18T20:37:20.797Z,12.67
2023-03-18T20:39:48.589Z,10.07
2023-03-18T20:42:18.485Z,10.63
2023-03-18T20:44:45.578Z,10.00
2023-03-18T20:47:13.431Z,10.07
2023-03-18T20:49:41.218Z,10.73
2023-03-18T20:52:25.849Z,8.90
2023-03-18T20:54:52.452Z,10.87
2023-03-18T20:57:19.182Z,9.17
2023-03-18T20:59:48.970Z,9.27
2023-03-18T21:02:32.744Z,9.57
2023-03-18T21:05:00.878Z,8.87
2023-03-18T21:07:28.266Z,10.50
2023-03-18T21:09:54.731Z,21.27
2023-03-18T21:12:21.995Z,9.37
2023-03-18T21:14:49.391Z,10.60
2023-03-18T21:17:20.034Z,9.40
2023-03-18T21:19:47.916Z,9.20
2023-03-18T21:22:19.262Z,9.77
2023-03-18T21:24:45.840Z,10.50
2023-03-18T21:27:24.276Z,11.33
2023-03-18T21:29:51.559Z,8.30
2023-03-18T21:32:27.261Z,6.97
2023-03-18T21:34:54.869Z,6.87
2023-03-18T21:37:23.934Z,8.03
2023-03-18T21:39:51.337Z,33.70
2023-03-18T21:42:25.171Z,9.27
2023-03-18T21:44:52.159Z,8.93
2023-03-18T21:47:20.919Z,7.73
2023-03-18T21:49:47.679Z,6.03
2023-03-18T21:52:34.617Z,7.10
2023-03-18T21:55:02.030Z,8.10
2023-03-18T21:57:29.604Z,6.53
2023-03-18T21:59:56.078Z,7.27
2023-03-18T22:02:31.499Z,5.90
2023-03-18T22:05:07.641Z,6.67
2023-03-18T22:07:34.319Z,5.60
2023-03-18T22:10:01.121Z,7.30
2023-03-18T22:12:31.239Z,5.53
2023-03-18T22:14:58.374Z,6.50
2023-03-18T22:17:27.194Z,6.20
2023-03-18T22:19:54.862Z,6.43
2023-03-18T22:22:27.455Z,7.60
2023-03-18T22:24:54.107Z,6.07
2023-03-18T22:27:26.696Z,6.70
2023-03-18T22:29:54.582Z,6.00
2023-03-18T22:32:39.322Z,5.10
2023-03-18T22:35:14.511Z,7.83
2023-03-18T22:37:41.546Z,15.43
2023-03-18T22:40:11.252Z,20.30
2023-03-18T22:42:37.658Z,9.67
2023-03-18T22:45:04.455Z,9.33
2023-03-18T22:47:30.841Z,10.77
2023-03-18T22:49:57.229Z,8.33
2023-03-18T22:52:29.638Z,5.53
2023-03-18T22:54:58.880Z,5.13
2023-03-18T22:57:26.313Z,6.67
2023-03-18T22:59:53.469Z,4.90
2023-03-18T23:02:25.450Z,5.10
2023-03-18T23:04:52.787Z,8.97
2023-03-18T23:07:28.540Z,5.90
2023-03-18T23:09:57.262Z,7.97
2023-03-18T23:12:25.666Z,14.53
2023-03-18T23:14:53.050Z,13.87
2023-03-18T23:17:24.526Z,7.37
2023-03-18T23:19:51.766Z,9.67
2023-03-18T23:22:22.878Z,7.57
2023-03-18T23:24:49.297Z,6.63
2023-03-18T23:27:15.809Z,8.23
2023-03-18T23:29:43.340Z,7.77
2023-03-18T23:32:10.516Z,6.70
2023-03-18T23:34:37.046Z,6.30
2023-03-18T23:37:03.870Z,8.30
2023-03-18T23:39:31.216Z,7.17
2023-03-18T23:41:57.612Z,8.47
2023-03-18T23:44:25.725Z,14.97
2023-03-18T23:46:52.537Z,12.07
2023-03-18T23:49:19.028Z,10.93
2023-03-18T23:51:45.471Z,9.60
2023-03-18T23:54:12.218Z,11.40
2023-03-18T23:56:38.920Z,10.57
2023-03-18T23:59:05.635Z,8.37
